createdAt,value
2022-09-05T00:02:07.043Z,95219.22
2022-09-05T00:04:33.859Z,95225.09
2022-09-05T00:06:40.169Z,95220.13
2022-09-05T00:08:51.501Z,95217.50
2022-09-05T00:11:41.202Z,95218.66
2022-09-05T00:13:40.956Z,95216.81
2022-09-05T00:15:59.563Z,95215.72
2022-09-05T00:22:49.922Z,95218.22
2022-09-05T00:24:22.579Z,95225.06
2022-09-05T00:24:42.788Z,95219.38
2022-09-05T00:26:14.045Z,95229.47
2022-09-05T00:28:36.465Z,95231.16
2022-09-05T00:31:50.628Z,95229.16
2022-09-05T00:33:36.527Z,95219.22
2022-09-05T00:36:01.089Z,95231.31
2022-09-05T00:38:20.358Z,95219.31
2022-09-05T00:40:46.431Z,95231.00
2022-09-05T00:42:52.492Z,95228.69
2022-09-05T00:44:59.673Z,95237.72
2022-09-05T00:47:31.630Z,95235.75
2022-09-05T00:49:41.188Z,95240.13
2022-09-05T00:52:04.993Z,95233.19
2022-09-05T00:54:40.261Z,95236.31
2022-09-05T00:57:35.915Z,95232.84
2022-09-05T01:00:05.054Z,95230.94
2022-09-05T01:02:28.662Z,95234.66
2022-09-05T01:05:13.967Z,95237.34
2022-09-05T01:07:50.205Z,95248.22
2022-09-05T01:10:35.980Z,95243.53
2022-09-05T01:12:56.716Z,95241.09
2022-09-05T01:15:13.538Z,95240.72
2022-09-05T01:17:21.196Z,95241.78
2022-09-05T01:19:31.020Z,95234.66
2022-09-05T01:21:53.901Z,95235.66
2022-09-05T01:24:06.602Z,95233.22
2022-09-05T01:26:34.696Z,95244.41
2022-09-05T01:29:16.759Z,95233.81
2022-09-05T01:31:46.372Z,95229.72
2022-09-05T01:34:13.054Z,95225.03
2022-09-05T01:36:27.322Z,95221.16
2022-09-05T01:38:33.261Z,95229.13
2022-09-05T01:40:43.959Z,95224.25
2022-09-05T01:43:14.808Z,95224.69
2022-09-05T01:45:38.703Z,95225.09
2022-09-05T01:48:11.047Z,95228.38
2022-09-05T01:50:41.353Z,95225.72
2022-09-05T01:52:58.937Z,95225.34
2022-09-05T01:55:19.520Z,95229.44
2022-09-05T01:57:30.607Z,95231.69
2022-09-05T01:59:56.899Z,95236.19
2022-09-05T02:02:16.611Z,95240.69
2022-09-05T02:04:38.096Z,95236.38
2022-09-05T02:07:19.854Z,95236.59
2022-09-05T02:09:42.425Z,95236.59
2022-09-05T02:11:58.099Z,95233.72
2022-09-05T02:14:05.709Z,95233.53
2022-09-05T02:16:38.248Z,95231.69
2022-09-05T02:18:59.056Z,95228.41
2022-09-05T02:21:08.490Z,95229.84
2022-09-05T02:23:45.126Z,95222.75
2022-09-05T02:26:02.087Z,95227.41
2022-09-05T02:28:17.965Z,95237.00
2022-09-05T02:30:23.316Z,95238.44
2022-09-05T02:32:43.099Z,95241.53
2022-09-05T02:34:55.405Z,95241.53
2022-09-05T02:37:21.485Z,95239.53
2022-09-05T02:45:04.214Z,95242.00
2022-09-05T02:45:08.517Z,95240.34
2022-09-05T02:45:27.321Z,95235.41
2022-09-05T02:47:32.962Z,95235.16
2022-09-05T02:53:45.544Z,95246.38
2022-09-05T02:57:27.164Z,95241.06
2022-09-05T02:57:42.664Z,95245.75
2022-09-05T02:58:04.856Z,95239.44
2022-09-05T03:00:06.830Z,95246.34
2022-09-05T03:02:27.189Z,95246.13
2022-09-05T03:04:35.042Z,95245.03
2022-09-05T03:06:50.112Z,95246.88
2022-09-05T03:09:16.985Z,95249.94
2022-09-05T03:11:37.053Z,95258.63
2022-09-05T03:14:00.659Z,95249.84
2022-09-05T03:16:19.227Z,95252.69
2022-09-05T03:18:52.052Z,95252.47
2022-09-05T03:20:56.466Z,95257.22
2022-09-05T03:23:35.989Z,95255.13
2022-09-05T03:26:02.049Z,95265.34
2022-09-05T03:28:18.819Z,95264.13
2022-09-05T03:30:22.485Z,95264.16
2022-09-05T03:32:29.043Z,95263.41
2022-09-05T03:34:38.101Z,95264.66
2022-09-05T03:36:58.095Z,95267.22
2022-09-05T03:39:56.654Z,95268.41
2022-09-05T03:42:20.925Z,95271.81
2022-09-05T03:44:44.070Z,95269.50
2022-09-05T03:47:17.071Z,95268.88
2022-09-05T03:52:19.986Z,95276.25
2022-09-05T03:57:10.565Z,95283.97
2022-09-05T03:57:18.759Z,95287.16
2022-09-05T03:57:54.068Z,95279.38
2022-09-05T04:00:08.592Z,95289.59
2022-09-05T04:07:10.052Z,95283.16
2022-09-05T04:08:06.806Z,95284.03
2022-09-05T04:08:16.719Z,95299.19
2022-09-05T04:09:56.814Z,95293.94
2022-09-05T04:12:03.484Z,95298.66
2022-09-05T04:14:15.140Z,95301.56
2022-09-05T04:16:29.917Z,95301.88
2022-09-05T04:18:41.619Z,95299.81
2022-09-05T04:20:51.839Z,95300.91
2022-09-05T04:23:14.238Z,95307.34
2022-09-05T04:25:29.907Z,95309.28
2022-09-05T04:28:10.377Z,95319.41
2022-09-05T04:30:39.347Z,95306.25
2022-09-05T04:32:59.937Z,95316.16
2022-09-05T04:35:27.768Z,95321.56
2022-09-05T04:37:55.200Z,95324.47
2022-09-05T04:39:56.977Z,95332.34
2022-09-05T04:42:04.876Z,95337.28
2022-09-05T04:44:18.049Z,95337.78
2022-09-05T04:46:48.563Z,95350.09
2022-09-05T04:49:10.838Z,95347.00
2022-09-05T04:51:31.865Z,95351.91
2022-09-05T04:54:08.088Z,95350.81
2022-09-05T04:56:15.316Z,95350.06
2022-09-05T04:59:29.328Z,95353.00
2022-09-05T05:06:00.647Z,95354.72
2022-09-05T05:06:16.673Z,95366.28
2022-09-05T05:08:54.045Z,95369.06
2022-09-05T05:15:00.074Z,95367.38
2022-09-05T05:18:00.728Z,95369.13
2022-09-05T05:18:13.402Z,95369.63
2022-09-05T05:18:49.183Z,95371.97
2022-09-05T05:20:53.498Z,95382.25
2022-09-05T05:23:08.015Z,95374.38
2022-09-05T05:25:11.592Z,95382.59
2022-09-05T05:27:16.303Z,95384.03
2022-09-05T05:29:32.917Z,95386.44
2022-09-05T05:31:41.557Z,95385.88
2022-09-05T05:33:47.031Z,95384.53
2022-09-05T05:35:50.127Z,95385.38
2022-09-05T05:38:16.870Z,95391.13
2022-09-05T05:40:28.758Z,95391.63
2022-09-05T05:42:32.314Z,95397.56
2022-09-05T05:44:35.213Z,95400.50
2022-09-05T05:46:39.893Z,95396.22
2022-09-05T05:48:44.134Z,95402.97
2022-09-05T05:51:03.286Z,95402.59
2022-09-05T05:53:42.749Z,95402.16
2022-09-05T05:56:01.284Z,95406.22
2022-09-05T05:58:15.805Z,95405.84
2022-09-05T06:00:28.034Z,95401.56
2022-09-05T06:03:24.942Z,95399.66
2022-09-05T06:06:13.637Z,95404.16
2022-09-05T06:11:20.511Z,95405.63
2022-09-05T06:15:02.197Z,95402.06
2022-09-05T06:15:02.948Z,95407.13
2022-09-05T06:16:18.822Z,95403.22
2022-09-05T06:18:57.402Z,95402.69
2022-09-05T06:22:10.090Z,95403.47
2022-09-05T06:23:51.257Z,95405.56
2022-09-05T06:25:55.613Z,95397.41
2022-09-05T06:28:17.905Z,95406.03
2022-09-05T06:30:22.275Z,95400.97
2022-09-05T06:32:29.926Z,95404.91
2022-09-05T06:34:43.895Z,95411.22
2022-09-05T06:36:57.840Z,95414.50
2022-09-05T06:39:28.462Z,95411.63
2022-09-05T06:42:06.066Z,95414.72
2022-09-05T06:44:15.288Z,95414.09
2022-09-05T06:47:22.711Z,95419.22
2022-09-05T06:49:30.160Z,95424.94
2022-09-05T06:51:44.887Z,95433.06
2022-09-05T06:54:18.364Z,95429.50
2022-09-05T06:56:38.682Z,95423.56
2022-09-05T06:59:11.149Z,95425.59
2022-09-05T07:01:14.264Z,95429.94
2022-09-05T07:03:33.404Z,95429.22
2022-09-05T07:05:58.621Z,95420.06
2022-09-05T07:08:26.732Z,95414.09
2022-09-05T07:10:39.784Z,95420.88
2022-09-05T07:12:54.072Z,95421.88
2022-09-05T07:15:02.198Z,95420.38
2022-09-05T07:17:53.512Z,95416.75
2022-09-05T07:20:01.016Z,95416.56
2022-09-05T07:22:54.871Z,95418.00
2022-09-05T07:24:56.935Z,95409.34
2022-09-05T07:26:59.744Z,95411.47
2022-09-05T07:29:06.148Z,95417.22
2022-09-05T07:31:27.518Z,95405.19
2022-09-05T07:33:40.498Z,95409.91
2022-09-05T07:35:43.473Z,95403.28
2022-09-05T07:37:46.176Z,95407.69
2022-09-05T07:39:54.579Z,95407.91
2022-09-05T07:41:58.391Z,95416.28
2022-09-05T07:44:06.574Z,95412.75
2022-09-05T07:46:15.239Z,95414.56
2022-09-05T07:48:23.773Z,95409.69
2022-09-05T07:56:06.805Z,95412.47
2022-09-05T07:57:00.801Z,95417.72
2022-09-05T07:57:01.854Z,95411.28
2022-09-05T07:58:02.499Z,95415.00
2022-09-05T08:00:05.255Z,95416.13
2022-09-05T08:02:10.981Z,95421.75
2022-09-05T08:04:24.272Z,95412.44
2022-09-05T08:07:45.496Z,95410.22
2022-09-05T08:09:21.423Z,95412.69
2022-09-05T08:11:23.967Z,95418.41
2022-09-05T08:14:38.542Z,95416.78
2022-09-05T08:16:31.358Z,95413.91
2022-09-05T08:18:42.669Z,95416.94
2022-09-05T08:20:56.663Z,95411.59
2022-09-05T08:23:36.019Z,95413.22
2022-09-05T08:25:57.403Z,95414.66
2022-09-05T08:28:00.952Z,95416.53
2022-09-05T08:30:24.991Z,95418.59
2022-09-05T08:32:50.129Z,95413.63
2022-09-05T08:34:55.199Z,95415.69
2022-09-05T08:36:59.682Z,95414.25
2022-09-05T08:39:04.013Z,95420.44
2022-09-05T08:41:15.092Z,95415.28
2022-09-05T08:46:20.001Z,95418.97
2022-09-05T08:46:40.345Z,95410.63
2022-09-05T08:48:33.695Z,95415.34
2022-09-05T08:50:45.221Z,95413.69
2022-09-05T08:53:02.816Z,95422.81
2022-09-05T08:55:44.987Z,95411.81
2022-09-05T08:57:49.081Z,95407.34
2022-09-05T09:00:20.234Z,95416.09
2022-09-05T09:02:47.332Z,95408.50
2022-09-05T09:05:01.587Z,95412.00
2022-09-05T09:07:50.809Z,95415.31
2022-09-05T09:09:43.057Z,95414.72
2022-09-05T09:11:51.851Z,95421.28
2022-09-05T09:13:57.016Z,95408.94
2022-09-05T09:16:10.994Z,95413.63
2022-09-05T09:18:16.036Z,95415.03
2022-09-05T09:20:33.792Z,95420.19
2022-09-05T09:22:54.160Z,95414.47
2022-09-05T09:25:15.922Z,95409.59
2022-09-05T09:28:48.034Z,95415.53
2022-09-05T09:30:06.145Z,95411.47
2022-09-05T09:32:13.454Z,95412.00
2022-09-05T09:34:27.298Z,95415.75
2022-09-05T09:36:59.471Z,95416.97
2022-09-05T09:39:37.697Z,95414.44
2022-09-05T09:42:03.790Z,95404.72
2022-09-05T09:44:41.754Z,95404.47
2022-09-05T09:46:45.632Z,95403.19
2022-09-05T09:48:56.424Z,95393.81
2022-09-05T09:50:58.932Z,95389.75
2022-09-05T09:53:01.797Z,95388.41
2022-09-05T09:55:39.877Z,95386.34
2022-09-05T09:58:07.302Z,95385.53
2022-09-05T10:00:11.719Z,95384.81
2022-09-05T10:05:33.887Z,95384.09
2022-09-05T10:10:50.596Z,95375.13
2022-09-05T10:10:54.226Z,95381.88
2022-09-05T10:11:18.775Z,95378.69
2022-09-05T10:13:46.849Z,95374.41
2022-09-05T10:16:16.295Z,95372.97
2022-09-05T10:18:25.161Z,95366.66
2022-09-05T10:20:42.070Z,95362.91
2022-09-05T10:22:52.044Z,95356.09
2022-09-05T10:25:19.106Z,95352.75
2022-09-05T10:27:45.669Z,95357.72
2022-09-05T10:30:54.456Z,95350.97
2022-09-05T10:35:18.358Z,95353.91
2022-09-05T10:35:29.631Z,95344.41
2022-09-05T10:37:55.388Z,95341.88
2022-09-05T10:40:00.880Z,95349.41
2022-09-05T10:42:06.995Z,95340.28
2022-09-05T10:44:12.118Z,95348.69
2022-09-05T10:46:51.200Z,95344.16
2022-09-05T10:48:55.653Z,95343.72
2022-09-05T10:51:04.498Z,95341.94
2022-09-05T10:53:39.234Z,95337.84
2022-09-05T10:56:01.247Z,95352.63
2022-09-05T10:59:38.749Z,95343.81
2022-09-05T11:02:30.353Z,95342.47
2022-09-05T11:03:52.899Z,95339.13
2022-09-05T11:05:58.046Z,95329.44
2022-09-05T11:08:08.431Z,95332.88
2022-09-05T11:10:24.787Z,95344.72
2022-09-05T11:12:44.517Z,95333.72
2022-09-05T11:14:55.198Z,95331.44
2022-09-05T11:17:25.454Z,95333.47
2022-09-05T11:19:43.251Z,95336.69
2022-09-05T11:22:07.451Z,95325.84
2022-09-05T11:24:58.573Z,95324.53
2022-09-05T11:27:24.351Z,95316.81
2022-09-05T11:29:42.863Z,95329.94
2022-09-05T11:36:30.944Z,95324.34
2022-09-05T11:39:45.993Z,95317.44
2022-09-05T11:39:55.070Z,95316.56
2022-09-05T11:40:29.214Z,95315.19
2022-09-05T11:42:49.149Z,95303.13
2022-09-05T11:45:20.944Z,95305.16
2022-09-05T11:47:53.427Z,95299.00
2022-09-05T11:50:00.996Z,95298.88
2022-09-05T11:52:08.512Z,95303.53
2022-09-05T11:54:26.699Z,95306.59
2022-09-05T11:57:32.108Z,95309.00
2022-09-05T12:00:18.560Z,95302.09
2022-09-05T12:02:26.436Z,95307.97
2022-09-05T12:05:48.267Z,95296.75
2022-09-05T12:08:08.646Z,95308.03
2022-09-05T12:10:46.838Z,95295.28
2022-09-05T12:13:31.905Z,95293.41
2022-09-05T12:15:34.502Z,95282.53
2022-09-05T12:17:36.218Z,95287.41
2022-09-05T12:19:47.317Z,95288.41
2022-09-05T12:22:16.165Z,95283.75
2022-09-05T12:25:15.289Z,95297.25
2022-09-05T12:27:39.894Z,95286.13
2022-09-05T12:29:27.741Z,95281.72
2022-09-05T12:33:14.819Z,95284.66
2022-09-05T12:36:04.661Z,95286.59
2022-09-05T12:40:35.699Z,95288.75
2022-09-05T12:40:58.518Z,95286.81
2022-09-05T12:42:21.728Z,95282.81
2022-09-05T12:44:44.394Z,95288.28
2022-09-05T12:47:16.703Z,95288.59
2022-09-05T12:49:39.313Z,95282.56
2022-09-05T12:52:03.827Z,95280.28
2022-09-05T12:54:32.863Z,95272.72
2022-09-05T13:00:24.206Z,95281.25
2022-09-05T13:03:01.266Z,95274.88
2022-09-05T13:03:13.411Z,95274.31
2022-09-05T13:04:47.347Z,95275.94
2022-09-05T13:07:01.928Z,95273.19
2022-09-05T13:09:16.925Z,95278.78
2022-09-05T13:14:49.526Z,95271.63
2022-09-05T13:15:01.997Z,95261.84
2022-09-05T13:16:29.109Z,95265.72
2022-09-05T13:18:39.272Z,95284.47
2022-09-05T13:20:50.257Z,95277.34
2022-09-05T13:22:53.364Z,95266.22
2022-09-05T13:25:10.182Z,95272.97
2022-09-05T13:27:17.700Z,95270.84
2022-09-05T13:29:22.046Z,95269.97
2022-09-05T13:37:55.920Z,95278.00
2022-09-05T13:38:15.467Z,95271.94
2022-09-05T13:38:17.483Z,95267.69
2022-09-05T13:39:05.364Z,95259.78
2022-09-05T13:41:27.728Z,95263.19
2022-09-05T13:43:33.277Z,95261.75
2022-09-05T13:45:48.746Z,95256.41
2022-09-05T13:48:20.008Z,95255.00
2022-09-05T13:50:34.508Z,95254.34
2022-09-05T13:52:40.115Z,95256.41
2022-09-05T13:54:51.087Z,95246.31
2022-09-05T13:57:31.894Z,95241.94
2022-09-05T13:59:41.168Z,95248.53
2022-09-05T14:02:24.912Z,95252.44
2022-09-05T14:05:19.442Z,95251.63
2022-09-05T14:07:44.664Z,95251.69
2022-09-05T14:09:49.467Z,95252.06
2022-09-05T14:12:04.248Z,95257.59
2022-09-05T14:15:08.342Z,95267.16
2022-09-05T14:19:52.943Z,95258.16
2022-09-05T14:21:54.768Z,95271.44
2022-09-05T14:24:03.266Z,95269.16
2022-09-05T14:26:15.030Z,95269.91
2022-09-05T14:28:40.907Z,95271.69
2022-09-05T14:32:09.316Z,95270.50
2022-09-05T14:37:42.039Z,95273.97
2022-09-05T14:37:50.481Z,95273.44
2022-09-05T14:38:21.817Z,95261.13
2022-09-05T14:40:57.652Z,95272.91
2022-09-05T14:43:30.938Z,95275.28
2022-09-05T14:45:42.800Z,95272.03
2022-09-05T14:47:50.725Z,95281.00
2022-09-05T14:50:21.196Z,95285.03
2022-09-05T14:52:29.429Z,95281.03
2022-09-05T14:59:51.106Z,95284.03
2022-09-05T15:02:49.219Z,95278.09
2022-09-05T15:02:58.391Z,95275.19
2022-09-05T15:04:48.298Z,95270.88
2022-09-05T15:07:24.962Z,95283.00
2022-09-05T15:12:17.768Z,95277.94
2022-09-05T15:12:24.308Z,95280.19
2022-09-05T15:14:11.355Z,95277.78
2022-09-05T15:16:14.288Z,95283.97
2022-09-05T15:18:22.336Z,95289.25
2022-09-05T15:20:32.339Z,95283.47
2022-09-05T15:22:36.973Z,95288.97
2022-09-05T15:24:38.617Z,95278.81
2022-09-05T15:26:56.547Z,95281.84
2022-09-05T15:29:13.872Z,95299.59
2022-09-05T15:31:19.069Z,95301.22
2022-09-05T15:33:25.302Z,95299.94
2022-09-05T15:35:37.118Z,95305.09
2022-09-05T15:37:41.496Z,95299.75
2022-09-05T15:39:43.314Z,95307.03
2022-09-05T15:41:45.022Z,95301.56
2022-09-05T15:44:09.585Z,95303.72
2022-09-05T15:46:12.643Z,95298.91
2022-09-05T15:48:18.494Z,95307.03
2022-09-05T15:50:26.366Z,95302.09
2022-09-05T15:52:31.681Z,95296.53
2022-09-05T15:54:40.426Z,95302.88
2022-09-05T15:56:47.531Z,95303.56
2022-09-05T15:58:54.839Z,95305.72
2022-09-05T16:00:57.148Z,95297.72
2022-09-05T16:04:36.453Z,95299.44
2022-09-05T16:10:30.438Z,95304.03
2022-09-05T16:10:34.562Z,95300.78
2022-09-05T16:11:10.048Z,95305.75
2022-09-05T16:13:06.636Z,95301.56
2022-09-05T16:18:53.055Z,95300.53
2022-09-05T16:23:19.710Z,95314.13
2022-09-05T16:23:26.563Z,95309.38
2022-09-05T16:23:34.524Z,95312.59
2022-09-05T16:25:22.806Z,95313.78
2022-09-05T16:27:58.882Z,95311.91
2022-09-05T16:30:01.057Z,95308.91
2022-09-05T16:32:02.803Z,95312.84
2022-09-05T16:34:11.704Z,95318.75
2022-09-05T16:36:31.036Z,95317.31
2022-09-05T16:38:50.009Z,95322.03
2022-09-05T16:40:55.545Z,95324.53
2022-09-05T16:43:27.108Z,95324.59
2022-09-05T16:45:40.142Z,95320.28
2022-09-05T16:48:09.944Z,95321.00
2022-09-05T16:50:46.748Z,95323.50
2022-09-05T16:52:53.538Z,95324.75
2022-09-05T16:55:29.348Z,95327.06
2022-09-05T16:57:34.471Z,95328.72
2022-09-05T16:59:39.004Z,95338.72
2022-09-05T17:02:06.129Z,95328.63
2022-09-05T17:04:20.793Z,95334.16
2022-09-05T17:07:07.327Z,95340.69
2022-09-05T17:09:25.618Z,95338.06
2022-09-05T17:11:29.600Z,95335.88
2022-09-05T17:13:52.032Z,95333.59
2022-09-05T17:15:54.414Z,95335.25
2022-09-05T17:18:22.228Z,95335.06
2022-09-05T17:20:28.593Z,95338.53
2022-09-05T17:29:03.288Z,95345.72
2022-09-05T17:29:18.516Z,95348.59
2022-09-05T17:29:28.159Z,95345.50
2022-09-05T17:32:31.738Z,95349.00
2022-09-05T17:34:52.086Z,95352.50
2022-09-05T17:37:41.641Z,95352.66
2022-09-05T17:39:55.810Z,95358.00
2022-09-05T17:42:28.070Z,95355.13
2022-09-05T17:44:45.946Z,95354.56
2022-09-05T17:47:35.430Z,95349.69
2022-09-05T17:49:46.480Z,95352.78
2022-09-05T17:51:51.940Z,95347.84
2022-09-05T17:53:59.916Z,95345.63
2022-09-05T17:56:01.513Z,95344.97
2022-09-05T17:58:49.320Z,95349.06
2022-09-05T18:00:51.477Z,95344.78
2022-09-05T18:02:56.485Z,95347.66
2022-09-05T18:04:58.588Z,95347.84
2022-09-05T18:07:01.191Z,95349.50
2022-09-05T18:09:12.277Z,95344.97
2022-09-05T18:11:26.268Z,95348.47
2022-09-05T18:13:54.880Z,95347.44
2022-09-05T18:15:56.737Z,95353.38
2022-09-05T18:18:02.216Z,95345.38
2022-09-05T18:20:42.046Z,95358.28
2022-09-05T18:22:47.742Z,95349.47
2022-09-05T18:30:11.521Z,95344.41
2022-09-05T18:32:13.278Z,95351.16
2022-09-05T18:34:20.626Z,95347.06
2022-09-05T18:36:25.731Z,95345.66
2022-09-05T18:38:51.470Z,95350.97
2022-09-05T18:41:08.004Z,95352.59
2022-09-05T18:43:19.357Z,95350.75
2022-09-05T18:45:28.638Z,95349.75
2022-09-05T18:47:57.263Z,95343.81
2022-09-05T18:50:26.723Z,95345.84
2022-09-05T18:52:25.978Z,95339.31
2022-09-05T18:54:29.695Z,95325.81
2022-09-05T18:57:12.041Z,95329.06
2022-09-05T18:59:17.024Z,95326.41
2022-09-05T19:01:34.827Z,95324.56
2022-09-05T19:03:36.864Z,95327.84
2022-09-05T19:05:59.214Z,95331.75
2022-09-05T19:08:29.210Z,95331.97
2022-09-05T19:10:36.917Z,95323.78
2022-09-05T19:12:53.524Z,95330.13
2022-09-05T19:15:06.791Z,95330.94
2022-09-05T19:17:11.514Z,95341.81
2022-09-05T19:19:24.466Z,95340.19
2022-09-05T19:21:28.017Z,95330.34
2022-09-05T19:23:57.073Z,95327.25
2022-09-05T19:26:09.946Z,95323.19
2022-09-05T19:36:49.257Z,95326.66
2022-09-05T19:36:53.155Z,95324.19
2022-09-05T19:37:06.085Z,95317.44
2022-09-05T19:37:22.492Z,95319.28
2022-09-05T19:38:12.728Z,95320.72
2022-09-05T19:46:21.100Z,95322.34
2022-09-05T19:47:40.055Z,95314.56
2022-09-05T19:47:40.244Z,95317.44
2022-09-05T19:50:05.962Z,95322.75
2022-09-05T19:52:17.301Z,95319.28
2022-09-05T19:54:28.538Z,95323.75
2022-09-05T19:56:37.961Z,95325.00
2022-09-05T19:58:42.545Z,95321.34
2022-09-05T20:01:00.774Z,95323.38
2022-09-05T20:03:03.876Z,95328.88
2022-09-05T20:05:08.345Z,95322.94
2022-09-05T20:07:15.748Z,95325.81
2022-09-05T20:09:23.029Z,95319.69
2022-09-05T20:11:45.741Z,95315.59
2022-09-05T20:13:48.228Z,95311.69
2022-09-05T20:15:51.714Z,95333.78
2022-09-05T20:17:55.347Z,95321.28
2022-09-05T20:20:16.965Z,95321.72
2022-09-05T20:22:49.575Z,95331.13
2022-09-05T20:24:49.740Z,95323.97
2022-09-05T20:26:51.822Z,95327.84
2022-09-05T20:29:01.733Z,95335.22
2022-09-05T20:31:08.854Z,95327.47
2022-09-05T20:33:16.976Z,95330.31
2022-09-05T20:37:00.996Z,95328.25
2022-09-05T20:43:18.457Z,95323.31
2022-09-05T20:43:20.651Z,95326.84
2022-09-05T20:43:26.647Z,95328.03
2022-09-05T20:45:01.368Z,95321.28
2022-09-05T20:54:05.337Z,95329.44
2022-09-05T20:54:10.296Z,95334.56
2022-09-05T20:54:27.072Z,95327.81
2022-09-05T20:54:34.639Z,95331.72
2022-09-05T20:56:48.332Z,95326.59
2022-09-05T20:58:58.742Z,95326.59
2022-09-05T21:01:32.585Z,95329.31
2022-09-05T21:03:40.007Z,95329.97
2022-09-05T21:05:42.575Z,95333.75
2022-09-05T21:07:46.226Z,95325.03
2022-09-05T21:09:59.838Z,95326.75
2022-09-05T21:12:09.118Z,95317.88
2022-09-05T21:14:21.339Z,95324.75
2022-09-05T21:16:28.552Z,95321.59
2022-09-05T21:18:33.784Z,95322.34
2022-09-05T21:20:36.458Z,95323.41
2022-09-05T21:22:43.711Z,95317.75
2022-09-05T21:24:47.356Z,95322.09
2022-09-05T21:26:50.035Z,95317.75
2022-09-05T21:29:13.261Z,95325.03
2022-09-05T21:31:18.084Z,95323.91
2022-09-05T21:33:24.188Z,95320.34
2022-09-05T21:35:42.247Z,95319.59
2022-09-05T21:37:45.658Z,95320.44
2022-09-05T21:39:58.479Z,95314.97
2022-09-05T21:42:06.433Z,95316.00
2022-09-05T21:47:35.296Z,95321.94
2022-09-05T21:47:39.458Z,95318.28
2022-09-05T21:49:12.111Z,95319.72
2022-09-05T21:51:14.130Z,95313.38
2022-09-05T21:57:08.244Z,95321.78
2022-09-05T21:59:14.688Z,95321.16
2022-09-05T21:59:29.711Z,95323.81
2022-09-05T22:00:35.616Z,95319.72
2022-09-05T22:02:37.687Z,95312.78
2022-09-05T22:04:41.465Z,95315.63
2022-09-05T22:06:48.688Z,95323.75
2022-09-05T22:09:09.916Z,95320.31
2022-09-05T22:11:13.748Z,95314.81
2022-09-05T22:13:15.772Z,95324.00
2022-09-05T22:15:27.494Z,95320.53
2022-09-05T22:17:30.988Z,95318.91
2022-09-05T22:19:37.128Z,95322.13
2022-09-05T22:21:40.380Z,95320.88
2022-09-05T22:23:48.175Z,95330.25
2022-09-05T22:25:49.849Z,95315.53
2022-09-05T22:27:51.754Z,95322.66
2022-09-05T22:29:53.528Z,95323.69
2022-09-05T22:31:55.419Z,95318.56
2022-09-05T22:33:58.371Z,95322.25
2022-09-05T22:36:00.197Z,95327.94
2022-09-05T22:38:09.641Z,95321.13
2022-09-05T22:40:13.033Z,95317.84
2022-09-05T22:42:14.849Z,95328.06
2022-09-05T22:44:16.483Z,95324.00
2022-09-05T22:46:18.130Z,95324.63
2022-09-05T22:48:19.957Z,95326.94
2022-09-05T22:50:21.776Z,95316.66
2022-09-05T22:52:23.471Z,95324.06
2022-09-05T22:54:25.320Z,95324.91
2022-09-05T22:56:32.069Z,95324.91
2022-09-05T22:58:41.592Z,95330.41
2022-09-05T23:00:44.992Z,95329.59
2022-09-05T23:02:51.622Z,95328.91
2022-09-05T23:04:54.094Z,95323.78
2022-09-05T23:06:56.149Z,95323.72
2022-09-05T23:08:57.903Z,95312.41
2022-09-05T23:11:06.939Z,95318.78
2022-09-05T23:13:09.930Z,95318.25
2022-09-05T23:15:11.835Z,95318.78
2022-09-05T23:17:13.690Z,95313.31
2022-09-05T23:19:15.369Z,95317.53
2022-09-05T23:21:17.037Z,95310.09
2022-09-05T23:23:18.758Z,95313.53
2022-09-05T23:25:21.664Z,95315.50
2022-09-05T23:27:23.316Z,95313.75
2022-09-05T23:29:25.067Z,95310.34
2022-09-05T23:31:26.986Z,95318.19
2022-09-05T23:33:29.252Z,95309.47
2022-09-05T23:35:30.854Z,95312.94
2022-09-05T23:37:32.552Z,95305.44
2022-09-05T23:39:34.319Z,95308.09
2022-09-05T23:41:35.963Z,95304.69
2022-09-05T23:43:40.707Z,95308.97
2022-09-05T23:45:42.316Z,95306.13
2022-09-05T23:47:43.961Z,95309.19
2022-09-05T23:49:45.641Z,95305.09
2022-09-05T23:51:47.296Z,95306.25
2022-09-05T23:53:48.889Z,95308.91
2022-09-05T23:55:50.538Z,95309.94
2022-09-05T23:57:57.354Z,95321.75
2022-09-05T23:59:58.990Z,95312.13
